Airfield :
LOGIN :

Register | Disclaimer

   EN    FR    IT 

 










Legend :    VFR   Marginal VFR   IFR   Intensive IFR   Very Intensive IFR
Visi :
Ceiling :
>= 8 km
>= 3000ft
5 to 8 km
1000 to 3000 ft
1500m to 5 km
500 to 1000 ft
800 to 1500m
200 to 500 ft
< 800m
< 200 ft
Symbols :   Thunderstorms  Fog  Heavy snow  Heavy precipitations  Wind > 20 kt
SIGMETs :     Misc.  Thunderstorms  Icing  Turbulence  Mountain Waves  Volcanic Ashes






- Airport Elevation : 160 ft
- IATA code : FMO


EDDG - Münster Osnabrück Int.

CURRENT METAR :
  • 201850Z VRB01KT 0700 0500N R25/0700U FZFG FEW003 M00/M01 Q1016 TEMPO 0300 BKN001

EXPIRED METARs :
  • 201820Z 35001KT 2700 BR SCT004 00/M00 Q1016 BECMG 1200 BCFG
  • 201750Z VRB02KT 5000 BR BKN004 01/00 Q1016 NOSIG
  • 201720Z 06003KT 020V120 4500 BR OVC004 02/01 Q1016 NOSIG
  • 201650Z VRB02KT 4500 BR OVC004 02/02 Q1016 NOSIG
  • 201620Z 06003KT 360V130 4500 BR OVC004 02/01 Q1017 NOSIG

TAF AMD TAF EDDG
Valid from the 20 at 19:00 until the 21 at 18:00 UTC


201909Z 2019/2118 VRB03KT 2000 BR SCT003
BECMG 2019/2021 BKN003
TEMPO 2019/2024 0600 FZFG OVC001
PROB30
TEMPO 2100/2118 4000 BR BKN010
BECMG 2108/2110 5000 BR BKN005



MET'MAP, your aeronautical weather chart ! - Copyright ORBIFLY December 2007 - Disclaimer

ORBIFLY MET'MAP TEAM :

Programming & Development : Alexandra Zaïnal
Concept & Development : Baudouin d'Aumeries
Co-Development & Prog : Marc-Olivier Méhu
Technical & hardware support : Manuel Goepfert

Contact : metmap@orbifly.com




SOURCES & CREDITS :

   NOAA